Latest Coastal Weather Observations for Hamilton Island

IDQ60701

Issued at 9:45 pm EST Friday 1 August 2014 (issued every 10 minutes, with the page automatically refreshed every 10 minutes)

About coastal observations | Map of coastal stations | Coastal observations for QLD | Marine services | Other Formats
Station Details ID: 033106 Name: HAMILTON ISLAND AIRPORT Lat: -20.37 Lon: 148.95 Height: 58.66 m
Data from the previous 72 hours. | See also: Recent months at Hamilton Island
Date/Time
EST
Temp

°C
Wind Pressure Rain
since 9am
mm
Weather Cloud Vis
km
Sea
Height
m
Swell
Dir
 
Speed
knots
Gust
knots
hPa Trend Height
m
Period
s
Dir
01/09:30pm 20.2 NNW 0 0 1018.4 - 0.0 - - 10 - - - -
01/09:00pm 20.3 WNW 3 5 1018.1 - 0.0 - - 10 - - - -
01/08:30pm 20.7 N 2 5 1018.3 - 0.0 - - 10 - - - -
01/08:00pm 20.3 N 5 5 1017.9 - 0.0 - - 10 - - - -
01/07:30pm 20.4 NNW 4 5 1017.6 - 0.0 - - 10 - - - -
01/07:00pm 20.7 NNE 6 8 1017.2 - 0.0 - - 10 - - - -
01/06:30pm 21.0 NNE 6 7 1016.7 - 0.0 - - 10 - - - -
01/06:00pm 21.1 NE 7 8 1016.1 - 0.0 - - 10 - - - -
01/05:30pm 21.8 NNE 7 9 1015.9 - 0.0 - - 10 - - - -
01/05:00pm 22.3 NE 8 11 1015.6 - 0.0 - Partly cloudy 10 - - - -
01/04:30pm 22.8 ENE 9 12 1015.6 - 0.0 - Partly cloudy 10 - - - -
01/04:00pm 22.5 E 8 10 1015.6 - 0.0 - Partly cloudy 10 - - - -
01/03:30pm 21.8 E 11 13 1015.6 - 0.0 - Partly cloudy 10 - - - -
01/03:00pm 22.5 E 9 11 1015.6 - 0.0 - Partly cloudy 10 - - - -
01/02:30pm 23.2 E 11 12 1015.9 - 0.0 - Partly cloudy 10 - - - -
01/02:00pm 22.8 ESE 9 11 1016.1 - 0.0 - Partly cloudy 10 - - - -
01/01:30pm 22.6 SE 6 8 1016.6 - 0.0 - - 10 - - - -
01/01:00pm 22.3 SE 6 7 1016.9 - 0.0 - - 10 - - - -
01/12:30pm 22.2 SE 7 8 1017.5 - 0.0 - - 10 - - - -
01/12:11pm 21.8 SE 8 9 1017.7 - 0.0 - Partly cloudy 10 - - - -
01/12:00pm 22.2 SE 7 8 1017.8 - 0.0 - Partly cloudy 10 - - - -
01/11:56am 22.3 SE 7 8 1017.9 - 0.0 - Partly cloudy 10 - - - -
01/11:30am 22.2 SE 7 8 1018.5 - 0.0 - - 10 - - - -
01/11:00am 22.1 SSE 7 8 1018.9 - 0.0 - - 10 - - - -
01/10:30am 22.1 SE 6 8 1019.2 - 0.0 - Partly cloudy 10 - - - -
01/10:00am 21.9 SE 6 7 1019.4 - 0.0 - - 10 - - - -
01/09:47am 22.0 SE 6 8 1019.5 - 0.0 - Partly cloudy 10 - - - -
01/09:30am 21.5 SE 6 7 1019.5 - 0.0 - Partly cloudy 10 - - - -
01/09:00am 22.1 SE 5 6 1019.2 - 0.0 - Mostly cloudy 10 - - - -
01/08:30am 21.3 SSE 5 7 1019.0 - 0.0 - Cloudy 10 - - - -
01/08:13am 21.0 SE 5 6 1018.8 - 0.0 - Partly cloudy 10 - - - -
01/08:08am 20.6 SE 5 7 1018.8 - 0.0 - Partly cloudy 10 - - - -
01/08:00am 20.8 SE 5 6 1018.7 - 0.0 - Partly cloudy 10 - - - -
01/07:30am 19.3 SSW 5 6 1018.4 - 0.0 - Cloudy 10 - - - -
01/07:00am 19.3 SW 6 7 1018.2 - 0.0 - Cloudy 10 - - - -
01/06:30am 19.0 S 7 8 1017.9 - 0.0 - Partly cloudy 10 - - - -
01/06:00am 19.1 S 7 8 1017.7 - 0.0 - Mostly cloudy 10 - - - -
01/05:30am 19.1 S 8 9 1017.4 - 0.0 - Cloudy 10 - - - -
01/05:00am 19.1 S 7 9 1017.2 - 0.0 - Partly cloudy 10 - - - -
01/04:30am 19.1 S 8 10 1017.0 - 0.0 - Partly cloudy 10 - - - -
01/04:00am 19.2 S 9 11 1017.1 - 0.0 - Partly cloudy - - - - -
01/03:48am 19.1 S 8 10 1017.1 - 0.0 - Partly cloudy 10 - - - -
01/03:30am 19.2 S 8 10 1017.2 - 0.0 - Partly cloudy 10 - - - -
01/03:00am 19.2 S 9 11 1017.3 - 0.0 - Mostly cloudy 10 - - - -
01/02:30am 19.3 S 8 11 1017.6 - 0.0 - Partly cloudy 10 - - - -
01/02:04am 19.4 S 11 12 1017.7 - 0.0 - Partly cloudy 10 - - - -
01/02:00am 19.4 S 11 12 1017.7 - 0.0 - Partly cloudy 10 - - - -
01/01:31am 19.8 S 9 12 1017.9 - 0.0 - Partly cloudy 10 - - - -
01/01:30am 19.9 S 9 12 1018.0 - 0.0 - Partly cloudy 10 - - - -
01/01:00am 20.4 ESE 7 8 1018.0 - 0.0 - - 10 - - - -
01/12:47am 20.5 ESE 8 10 1018.0 - 0.0 - Partly cloudy 10 - - - -
01/12:30am 20.6 ESE 10 11 1018.0 - 0.0 - Partly cloudy 10 - - - -
01/12:00am 20.7 ESE 9 11 1018.1 - 0.0 - Partly cloudy 10 - - - -
 
Date/Time
EST
Temp

°C
Wind Pressure Rain
since 9am
mm
Weather Cloud Vis
km
Sea
Height
m
Swell
Dir
 
Speed
knots
Gust
knots
hPa Trend Height
m
Period
s
Dir
31/11:45pm 20.7 ESE 10 11 1018.1 - 0.0 - Partly cloudy 10 - - - -
31/11:30pm 20.8 ESE 10 12 1018.2 - 0.0 - Partly cloudy 10 - - - -
31/11:00pm 20.6 ESE 9 11 1018.4 - 0.0 - Partly cloudy 10 - - - -
31/10:30pm 20.6 E 12 14 1018.4 - 0.0 - Partly cloudy 10 - - - -
31/10:00pm 20.5 ESE 11 13 1018.6 - 0.0 - Partly cloudy 10 - - - -
31/09:30pm 20.2 ESE 9 11 1018.7 - 0.0 - - 10 - - - -
31/09:00pm 20.1 ESE 9 12 1018.6 - 0.0 - - 10 - - - -
31/08:34pm 20.4 ESE 10 14 1018.6 - 0.0 - Partly cloudy 10 - - - -
31/08:30pm 20.2 ESE 10 12 1018.6 - 0.0 - Partly cloudy 10 - - - -
31/08:00pm 20.2 ESE 10 12 1018.5 - 0.0 - Partly cloudy 10 - - - -
31/07:59pm 20.3 ESE 10 12 1018.5 - 0.0 - Partly cloudy 10 - - - -
31/07:30pm 20.2 ESE 10 13 1018.2 - 0.0 - Partly cloudy 10 - - - -
31/07:00pm 20.1 ESE 11 13 1017.8 - 0.0 - Partly cloudy 10 - - - -
31/06:30pm 20.2 ESE 11 13 1017.5 - 0.0 - - 10 - - - -
31/06:00pm 20.1 ESE 11 12 1017.2 - 0.0 - - 10 - - - -
31/05:30pm 20.4 ESE 11 13 1017.2 - 0.0 - Partly cloudy 10 - - - -
31/05:00pm 20.8 ESE 9 11 1017.0 - 0.0 - Partly cloudy 10 - - - -
31/04:30pm 21.0 SE 9 11 1017.2 - 0.0 - Partly cloudy 10 - - - -
31/04:00pm 20.9 SE 11 13 1017.0 - 0.0 - - 10 - - - -
31/03:30pm 21.3 SE 11 13 1017.1 - 0.0 - - 10 - - - -
31/03:00pm 21.5 SSE 12 13 1017.0 - 0.0 - - 10 - - - -
31/02:30pm 21.3 SSE 12 13 1017.2 - 0.0 - - 10 - - - -
31/02:00pm 21.3 SSE 14 15 1017.5 - 0.0 - - 10 - - - -
31/01:30pm 21.1 SSE 13 14 1018.0 - 0.0 - - 10 - - - -
31/01:00pm 21.1 SSE 14 16 1018.4 - 0.0 - - 10 - - - -
31/12:30pm 21.5 SSE 13 15 1018.8 - 0.0 - Partly cloudy 10 - - - -
31/12:00pm 20.9 SSE 12 15 1019.2 - 0.0 - Mostly cloudy 10 - - - -
31/11:30am 21.2 SSE 13 17 1020.0 - 0.0 - Partly cloudy 10 - - - -
31/11:00am 20.6 SSE 12 15 1020.3 - 0.0 - Partly cloudy 10 - - - -
31/10:30am 20.5 SSE 14 16 1020.6 - 0.0 - Partly cloudy 10 - - - -
31/10:00am 20.4 SSE 14 17 1020.7 - 0.0 - Partly cloudy 10 - - - -
31/09:30am 20.7 SSE 14 17 1020.7 - 0.0 - Partly cloudy 10 - - - -
31/09:00am 20.4 SSE 15 17 1020.6 - 0.2 - Partly cloudy 10 - - - -
31/08:30am 19.9 SSE 15 17 1020.3 - 0.2 - - 10 - - - -
31/08:00am 19.7 SSE 13 17 1020.2 - 0.2 - Partly cloudy 10 - - - -
31/07:30am 19.4 SSE 14 17 1020.0 - 0.2 - Partly cloudy 10 - - - -
31/07:00am 18.8 S 12 14 1019.7 - 0.2 - Partly cloudy 10 - - - -
31/06:51am 18.7 S 11 14 1019.6 - 0.2 - Partly cloudy 10 - - - -
31/06:30am 18.7 S 10 13 1019.5 - 0.2 - Partly cloudy 10 - - - -
31/06:29am 18.8 S 10 13 1019.5 - 0.2 - Partly cloudy 10 - - - -
31/06:00am 18.6 S 10 13 1019.1 - 0.2 - Cloudy 10 - - - -
31/05:51am 18.5 S 11 13 1019.2 - 0.2 - Partly cloudy 10 - - - -
31/05:40am 18.7 S 12 14 1019.0 - 0.2 - Partly cloudy 10 - - - -
31/05:30am 18.7 S 11 15 1019.0 - 0.2 - Partly cloudy 10 - - - -
31/05:00am 19.0 S 9 11 1018.8 - 0.2 - Partly cloudy 10 - - - -
31/04:40am 18.9 S 11 13 1018.8 - 0.2 - Partly cloudy 10 - - - -
31/04:30am 18.9 S 10 12 1018.8 - 0.2 - Partly cloudy 10 - - - -
31/04:00am 18.8 S 10 13 1018.8 - 0.2 - Partly cloudy 10 - - - -
31/03:36am 18.9 S 12 16 1018.9 - 0.2 - Partly cloudy 10 - - - -
31/03:30am 18.8 SSE 12 15 1019.0 - 0.2 - Partly cloudy 10 - - - -
31/03:19am 19.0 S 11 14 1018.9 - 0.2 - Partly cloudy 3 - - - -
31/03:13am 19.5 S 12 14 1019.0 - 0.0 - Partly cloudy 5 - - - -
31/03:07am 19.4 S 11 14 1019.0 - 0.0 - Partly cloudy 10 - - - -
31/03:00am 19.5 S 10 13 1019.0 - 0.0 - Cloudy 10 - - - -
31/02:47am 19.4 S 10 13 1019.2 - 0.0 - Partly cloudy 10 - - - -
31/02:30am 19.3 S 9 12 1019.2 - 0.0 - Partly cloudy 10 - - - -
31/02:00am 19.8 S 9 11 1019.5 - 0.0 - Partly cloudy 10 - - - -
31/01:30am 20.7 ESE 13 15 1019.8 - 0.0 - Partly cloudy 10 - - - -
31/01:00am 20.8 E 11 15 1019.8 - 0.0 - Partly cloudy 10 - - - -
31/12:30am 20.1 E 8 9 1020.1 - 0.0 - Partly cloudy 10 - - - -
31/12:00am 20.6 E 9 12 1019.9 - 0.0 - Mostly cloudy 10 - - - -
 
Date/Time
EST
Temp

°C
Wind Pressure Rain
since 9am
mm
Weather Cloud Vis
km
Sea
Height
m
Swell
Dir
 
Speed
knots
Gust
knots
hPa Trend Height
m
Period
s
Dir
30/11:30pm 20.5 ESE 12 14 1020.2 - 0.0 - Partly cloudy 10 - - - -
30/11:00pm 20.3 ESE 12 14 1020.4 - 0.0 - - 10 - - - -
30/10:30pm 20.2 ESE 11 13 1020.4 - 0.0 - - 10 - - - -
30/10:00pm 20.3 ESE 12 15 1020.6 - 0.0 - - 10 - - - -
30/09:30pm 20.1 ESE 13 17 1020.8 - 0.0 - - 10 - - - -
30/09:00pm 20.4 ESE 15 18 1020.5 - 0.0 - Mostly clear 10 - - - -
30/08:30pm 20.2 ESE 15 17 1020.5 - 0.0 - - 10 - - - -
30/08:00pm 20.3 ESE 16 18 1020.4 - 0.0 - - 10 - - - -
30/07:30pm 20.2 ESE 15 17 1020.2 - 0.0 - Partly cloudy 10 - - - -
30/07:00pm 20.4 ESE 16 19 1020.1 - 0.0 - Partly cloudy 10 - - - -
30/06:30pm 20.4 ESE 16 18 1019.8 - 0.0 - Partly cloudy 10 - - - -
30/06:00pm 20.3 ESE 15 17 1019.5 - 0.0 - Mostly cloudy 10 - - - -
30/05:30pm 20.3 SE 14 16 1019.6 - 0.0 - Cloudy 10 - - - -
30/05:00pm 20.4 SE 13 16 1019.6 - 0.0 - Cloudy 10 - - - -
30/04:30pm 20.7 SE 14 17 1019.4 - 0.0 - Partly cloudy 10 - - - -
30/04:00pm 20.9 SE 15 17 1019.2 - 0.0 - Cloudy 10 - - - -
30/03:30pm 21.1 SE 14 16 1019.2 - 0.0 - Partly cloudy 10 - - - -
30/03:00pm 21.5 SSE 15 17 1019.1 - 0.0 - Mostly cloudy 10 - - - -
30/02:30pm 21.6 SSE 13 15 1019.5 - 0.0 - Partly cloudy 10 - - - -
30/02:00pm 22.4 SE 11 13 1019.6 - 0.0 - - 10 - - - -
30/01:30pm 21.7 SSE 12 13 1019.9 - 0.0 - - 10 - - - -
30/01:00pm 21.5 SSE 12 14 1020.4 - 0.0 - - 10 - - - -
30/12:30pm 21.3 SSE 12 15 1020.9 - 0.0 - - 10 - - - -
30/12:00pm 21.1 SSE 14 16 1021.3 - 0.0 - - 10 - - - -
30/11:30am 20.9 SSE 13 16 1022.0 - 0.0 - - 10 - - - -
30/11:00am 20.7 SSE 15 17 1022.4 - 0.0 - - 10 - - - -
30/10:30am 20.5 SSE 14 16 1022.7 - 0.0 - - 10 - - - -
30/10:00am 20.3 SSE 12 15 1022.9 - 0.0 - - 10 - - - -
30/09:30am 20.0 SSE 11 14 1023.0 - 0.0 - - 10 - - - -
30/09:00am 19.9 SSE 11 14 1022.6 - 0.0 - - 10 - - - -
30/08:30am 19.6 SSE 11 14 1022.7 - 0.0 - - 10 - - - -
30/08:00am 19.4 SSE 11 15 1022.4 - 0.0 - - 10 - - - -
30/07:30am 18.9 S 9 14 1022.2 - 0.0 - - 10 - - - -
30/07:00am 18.0 S 12 14 1022.0 - 0.0 - - 10 - - - -
30/06:30am 17.7 S 12 14 1021.6 - 0.0 - - 10 - - - -
30/06:00am 17.7 S 11 14 1021.1 - 0.0 - - 10 - - - -
30/05:30am 17.9 S 11 14 1021.1 - 0.0 - - 10 - - - -
30/05:00am 17.8 S 11 13 1021.1 - 0.0 - - 10 - - - -
30/04:30am 18.0 S 11 13 1020.8 - 0.0 - - 10 - - - -
30/04:00am 18.1 S 11 14 1020.7 - 0.0 - - 10 - - - -
30/03:30am 18.0 S 12 15 1020.7 - 0.0 - - 10 - - - -
30/03:12am 18.2 S 12 14 1020.7 - 0.0 - Partly cloudy 10 - - - -
30/03:00am 18.2 S 11 13 1020.6 - 0.0 - Cloudy 10 - - - -
30/02:55am 18.3 S 11 13 1020.7 - 0.0 - Partly cloudy 10 - - - -
30/02:30am 18.6 S 11 13 1020.9 - 0.0 - Partly cloudy 10 - - - -
30/02:00am 18.7 S 13 15 1020.9 - 0.0 - Partly cloudy 10 - - - -
30/01:30am 18.8 S 11 14 1021.2 - 0.0 - Partly cloudy 10 - - - -
30/01:00am 19.3 SE 12 13 1021.2 - 0.0 - Partly cloudy 10 - - - -
30/12:30am 19.3 SSE 11 13 1021.5 - 0.0 - Partly cloudy 10 - - - -
30/12:00am 19.3 SSE 12 13 1021.3 - 0.0 - - 10 - - - -
 
Date/Time
EST
Temp

°C
Wind Pressure Rain
since 9am
mm
Weather Cloud Vis
km
Sea
Height
m
Swell
Dir
 
Speed
knots
Gust
knots
hPa Trend Height
m
Period
s
Dir
29/11:30pm 19.0 SE 11 14 1021.8 - 0.0 - - 10 - - - -
29/11:00pm 19.1 SE 12 14 1021.9 - 0.0 - - 10 - - - -
29/10:30pm 19.3 SE 13 15 1021.8 - 0.0 - - 10 - - - -
29/10:00pm 19.5 SSE 13 15 1021.9 - 0.0 - - 10 - - - -

Other Formats:

Comma delimited format used in spreadsheet applications
http://www.bom.gov.au/fwo/IDQ60701/IDQ60701.94368.axf

JavaScript Object Notation format (JSON) in row-major order
http://www.bom.gov.au/fwo/IDQ60701/IDQ60701.94368.json